sensor_id;sensor_type;location;lat;lon;timestamp;P1;durP1;ratioP1;P2;durP2;ratioP2
14052;SDS011;7101;51.600;7.310;2022-11-18T00:01:25;6.07;;;2.85;;
14052;SDS011;7101;51.600;7.310;2022-11-18T00:03:52;6.18;;;2.83;;
14052;SDS011;7101;51.600;7.310;2022-11-18T00:06:19;5.15;;;2.63;;
14052;SDS011;7101;51.600;7.310;2022-11-18T00:08:47;7.07;;;2.70;;
14052;SDS011;7101;51.600;7.310;2022-11-18T00:11:15;7.25;;;2.85;;
14052;SDS011;7101;51.600;7.310;2022-11-18T00:13:59;7.93;;;4.30;;
14052;SDS011;7101;51.600;7.310;2022-11-18T00:16:45;9.27;;;3.83;;
14052;SDS011;7101;51.600;7.310;2022-11-18T00:19:14;6.38;;;2.90;;
14052;SDS011;7101;51.600;7.310;2022-11-18T00:21:41;6.07;;;3.05;;
14052;SDS011;7101;51.600;7.310;2022-11-18T00:24:08;6.15;;;3.10;;
14052;SDS011;7101;51.600;7.310;2022-11-18T00:26:35;5.88;;;2.30;;
14052;SDS011;7101;51.600;7.310;2022-11-18T00:29:03;7.80;;;2.67;;
14052;SDS011;7101;51.600;7.310;2022-11-18T00:31:30;6.90;;;3.35;;
14052;SDS011;7101;51.600;7.310;2022-11-18T00:33:58;5.80;;;2.97;;
14052;SDS011;7101;51.600;7.310;2022-11-18T00:36:25;4.60;;;2.72;;
14052;SDS011;7101;51.600;7.310;2022-11-18T00:38:52;7.05;;;3.33;;
14052;SDS011;7101;51.600;7.310;2022-11-18T00:41:19;6.05;;;3.00;;
14052;SDS011;7101;51.600;7.310;2022-11-18T00:43:46;6.38;;;3.22;;
14052;SDS011;7101;51.600;7.310;2022-11-18T00:46:15;6.72;;;3.08;;
14052;SDS011;7101;51.600;7.310;2022-11-18T00:48:42;8.60;;;3.50;;
14052;SDS011;7101;51.600;7.310;2022-11-18T00:51:12;11.77;;;3.67;;
14052;SDS011;7101;51.600;7.310;2022-11-18T00:53:41;5.78;;;2.63;;
14052;SDS011;7101;51.600;7.310;2022-11-18T00:56:08;8.73;;;3.20;;
14052;SDS011;7101;51.600;7.310;2022-11-18T00:58:35;7.93;;;3.17;;
14052;SDS011;7101;51.600;7.310;2022-11-18T01:01:02;6.05;;;3.20;;
14052;SDS011;7101;51.600;7.310;2022-11-18T01:03:32;4.47;;;3.17;;
14052;SDS011;7101;51.600;7.310;2022-11-18T01:05:59;10.25;;;2.95;;
14052;SDS011;7101;51.600;7.310;2022-11-18T01:08:25;9.13;;;3.17;;
14052;SDS011;7101;51.600;7.310;2022-11-18T01:10:53;5.68;;;2.95;;
14052;SDS011;7101;51.600;7.310;2022-11-18T01:13:40;8.88;;;3.70;;
14052;SDS011;7101;51.600;7.310;2022-11-18T01:16:07;7.03;;;3.08;;
14052;SDS011;7101;51.600;7.310;2022-11-18T01:18:36;7.57;;;2.92;;
14052;SDS011;7101;51.600;7.310;2022-11-18T01:21:07;6.28;;;2.70;;
14052;SDS011;7101;51.600;7.310;2022-11-18T01:23:35;9.18;;;2.95;;
14052;SDS011;7101;51.600;7.310;2022-11-18T01:26:03;8.07;;;3.35;;
14052;SDS011;7101;51.600;7.310;2022-11-18T01:28:31;8.65;;;3.88;;
14052;SDS011;7101;51.600;7.310;2022-11-18T01:31:02;7.57;;;3.42;;
14052;SDS011;7101;51.600;7.310;2022-11-18T01:33:29;6.80;;;3.20;;
14052;SDS011;7101;51.600;7.310;2022-11-18T01:35:58;9.20;;;4.50;;
14052;SDS011;7101;51.600;7.310;2022-11-18T01:38:25;9.85;;;4.82;;
14052;SDS011;7101;51.600;7.310;2022-11-18T01:40:53;9.95;;;5.80;;
14052;SDS011;7101;51.600;7.310;2022-11-18T01:43:20;10.95;;;5.90;;
14052;SDS011;7101;51.600;7.310;2022-11-18T01:45:48;12.23;;;6.32;;
14052;SDS011;7101;51.600;7.310;2022-11-18T01:48:18;12.65;;;5.38;;
14052;SDS011;7101;51.600;7.310;2022-11-18T01:50:49;12.82;;;5.35;;
14052;SDS011;7101;51.600;7.310;2022-11-18T01:53:21;7.13;;;4.05;;
14052;SDS011;7101;51.600;7.310;2022-11-18T01:55:51;9.43;;;4.63;;
14052;SDS011;7101;51.600;7.310;2022-11-18T01:58:24;8.88;;;4.75;;
14052;SDS011;7101;51.600;7.310;2022-11-18T02:00:54;8.88;;;3.08;;
14052;SDS011;7101;51.600;7.310;2022-11-18T02:03:21;9.23;;;3.08;;
14052;SDS011;7101;51.600;7.310;2022-11-18T02:05:50;9.13;;;3.33;;
14052;SDS011;7101;51.600;7.310;2022-11-18T02:08:18;4.03;;;2.63;;
14052;SDS011;7101;51.600;7.310;2022-11-18T02:10:48;4.25;;;2.58;;
14052;SDS011;7101;51.600;7.310;2022-11-18T02:13:15;7.13;;;3.47;;
14052;SDS011;7101;51.600;7.310;2022-11-18T02:15:45;8.48;;;3.20;;
14052;SDS011;7101;51.600;7.310;2022-11-18T02:18:22;6.53;;;2.83;;
14052;SDS011;7101;51.600;7.310;2022-11-18T02:20:59;4.03;;;2.30;;
14052;SDS011;7101;51.600;7.310;2022-11-18T02:23:47;7.68;;;2.17;;
14052;SDS011;7101;51.600;7.310;2022-11-18T02:26:32;4.88;;;2.20;;
14052;SDS011;7101;51.600;7.310;2022-11-18T02:29:22;4.57;;;2.00;;
14052;SDS011;7101;51.600;7.310;2022-11-18T02:31:51;7.25;;;1.88;;
14052;SDS011;7101;51.600;7.310;2022-11-18T02:34:37;5.20;;;1.90;;
14052;SDS011;7101;51.600;7.310;2022-11-18T02:37:10;5.95;;;1.98;;
14052;SDS011;7101;51.600;7.310;2022-11-18T02:39:43;5.88;;;2.20;;
14052;SDS011;7101;51.600;7.310;2022-11-18T02:42:15;7.22;;;2.25;;
14052;SDS011;7101;51.600;7.310;2022-11-18T02:44:48;7.18;;;2.15;;
14052;SDS011;7101;51.600;7.310;2022-11-18T02:47:19;7.20;;;2.28;;
14052;SDS011;7101;51.600;7.310;2022-11-18T02:49:47;6.78;;;2.00;;
14052;SDS011;7101;51.600;7.310;2022-11-18T02:52:23;5.78;;;2.70;;
14052;SDS011;7101;51.600;7.310;2022-11-18T02:54:54;4.85;;;2.20;;
14052;SDS011;7101;51.600;7.310;2022-11-18T02:57:23;7.65;;;2.40;;
14052;SDS011;7101;51.600;7.310;2022-11-18T02:59:55;6.50;;;2.20;;
14052;SDS011;7101;51.600;7.310;2022-11-18T03:02:22;4.72;;;2.20;;
14052;SDS011;7101;51.600;7.310;2022-11-18T03:04:50;4.57;;;2.00;;
14052;SDS011;7101;51.600;7.310;2022-11-18T03:07:21;6.90;;;2.50;;
14052;SDS011;7101;51.600;7.310;2022-11-18T03:09:52;4.75;;;2.30;;
14052;SDS011;7101;51.600;7.310;2022-11-18T03:12:22;5.63;;;2.20;;
14052;SDS011;7101;51.600;7.310;2022-11-18T03:14:59;5.93;;;2.30;;
14052;SDS011;7101;51.600;7.310;2022-11-18T03:17:37;7.60;;;3.25;;
14052;SDS011;7101;51.600;7.310;2022-11-18T03:20:13;8.88;;;2.80;;
14052;SDS011;7101;51.600;7.310;2022-11-18T03:22:46;4.93;;;3.00;;
14052;SDS011;7101;51.600;7.310;2022-11-18T03:25:18;7.82;;;4.25;;
14052;SDS011;7101;51.600;7.310;2022-11-18T03:27:51;9.77;;;5.05;;
14052;SDS011;7101;51.600;7.310;2022-11-18T03:30:24;10.80;;;4.03;;
14052;SDS011;7101;51.600;7.310;2022-11-18T03:32:52;8.02;;;3.38;;
14052;SDS011;7101;51.600;7.310;2022-11-18T03:35:25;6.95;;;2.70;;
14052;SDS011;7101;51.600;7.310;2022-11-18T03:37:55;8.10;;;2.60;;
14052;SDS011;7101;51.600;7.310;2022-11-18T03:40:26;7.18;;;2.58;;
14052;SDS011;7101;51.600;7.310;2022-11-18T03:42:56;5.05;;;2.90;;
14052;SDS011;7101;51.600;7.310;2022-11-18T03:45:30;6.32;;;2.80;;
14052;SDS011;7101;51.600;7.310;2022-11-18T03:48:01;7.80;;;2.60;;
14052;SDS011;7101;51.600;7.310;2022-11-18T03:50:34;4.72;;;2.53;;
14052;SDS011;7101;51.600;7.310;2022-11-18T03:53:04;4.15;;;2.22;;
14052;SDS011;7101;51.600;7.310;2022-11-18T03:55:33;4.97;;;2.47;;
14052;SDS011;7101;51.600;7.310;2022-11-18T03:58:02;4.82;;;2.55;;
14052;SDS011;7101;51.600;7.310;2022-11-18T04:00:35;5.50;;;2.50;;
14052;SDS011;7101;51.600;7.310;2022-11-18T04:03:06;6.90;;;2.58;;
14052;SDS011;7101;51.600;7.310;2022-11-18T04:05:35;7.15;;;2.60;;
14052;SDS011;7101;51.600;7.310;2022-11-18T04:08:05;5.55;;;3.00;;
14052;SDS011;7101;51.600;7.310;2022-11-18T04:10:36;6.43;;;3.63;;
14052;SDS011;7101;51.600;7.310;2022-11-18T04:13:07;13.13;;;8.35;;
14052;SDS011;7101;51.600;7.310;2022-11-18T04:15:41;10.32;;;6.40;;
14052;SDS011;7101;51.600;7.310;2022-11-18T04:18:08;12.93;;;6.80;;
14052;SDS011;7101;51.600;7.310;2022-11-18T04:20:37;9.55;;;5.72;;
14052;SDS011;7101;51.600;7.310;2022-11-18T04:23:04;13.10;;;7.18;;
14052;SDS011;7101;51.600;7.310;2022-11-18T04:25:32;13.35;;;7.05;;
14052;SDS011;7101;51.600;7.310;2022-11-18T04:28:01;10.93;;;6.47;;
14052;SDS011;7101;51.600;7.310;2022-11-18T04:30:29;9.68;;;4.93;;
14052;SDS011;7101;51.600;7.310;2022-11-18T04:33:05;8.38;;;3.65;;
14052;SDS011;7101;51.600;7.310;2022-11-18T04:35:32;9.20;;;3.40;;
14052;SDS011;7101;51.600;7.310;2022-11-18T04:37:59;8.45;;;3.33;;
14052;SDS011;7101;51.600;7.310;2022-11-18T04:40:28;9.13;;;3.42;;
14052;SDS011;7101;51.600;7.310;2022-11-18T04:42:55;6.93;;;3.85;;
14052;SDS011;7101;51.600;7.310;2022-11-18T04:45:21;9.90;;;4.22;;
14052;SDS011;7101;51.600;7.310;2022-11-18T04:47:49;10.68;;;3.85;;
14052;SDS011;7101;51.600;7.310;2022-11-18T04:50:18;7.78;;;4.25;;
14052;SDS011;7101;51.600;7.310;2022-11-18T04:52:45;7.43;;;3.63;;
14052;SDS011;7101;51.600;7.310;2022-11-18T04:55:11;7.32;;;2.85;;
14052;SDS011;7101;51.600;7.310;2022-11-18T04:57:38;4.78;;;2.00;;
14052;SDS011;7101;51.600;7.310;2022-11-18T05:00:06;5.68;;;2.75;;
14052;SDS011;7101;51.600;7.310;2022-11-18T05:02:34;4.05;;;2.25;;
14052;SDS011;7101;51.600;7.310;2022-11-18T05:05:02;4.43;;;1.85;;
14052;SDS011;7101;51.600;7.310;2022-11-18T05:07:31;4.82;;;1.75;;
14052;SDS011;7101;51.600;7.310;2022-11-18T05:09:58;2.75;;;1.80;;
14052;SDS011;7101;51.600;7.310;2022-11-18T05:12:25;6.32;;;2.35;;
14052;SDS011;7101;51.600;7.310;2022-11-18T05:15:18;5.15;;;1.90;;
14052;SDS011;7101;51.600;7.310;2022-11-18T05:17:48;4.40;;;2.25;;
14052;SDS011;7101;51.600;7.310;2022-11-18T05:20:15;4.78;;;2.33;;
14052;SDS011;7101;51.600;7.310;2022-11-18T05:22:44;7.10;;;2.67;;
14052;SDS011;7101;51.600;7.310;2022-11-18T05:25:10;6.72;;;2.50;;
14052;SDS011;7101;51.600;7.310;2022-11-18T05:27:37;5.65;;;2.55;;
14052;SDS011;7101;51.600;7.310;2022-11-18T05:30:05;8.13;;;2.55;;
14052;SDS011;7101;51.600;7.310;2022-11-18T05:32:33;7.63;;;2.72;;
14052;SDS011;7101;51.600;7.310;2022-11-18T05:34:59;7.88;;;2.80;;
14052;SDS011;7101;51.600;7.310;2022-11-18T05:37:26;6.35;;;2.72;;
14052;SDS011;7101;51.600;7.310;2022-11-18T05:39:54;8.07;;;3.00;;
14052;SDS011;7101;51.600;7.310;2022-11-18T05:42:21;7.30;;;2.97;;
14052;SDS011;7101;51.600;7.310;2022-11-18T05:45:05;12.50;;;4.13;;
14052;SDS011;7101;51.600;7.310;2022-11-18T05:47:32;10.30;;;3.47;;
14052;SDS011;7101;51.600;7.310;2022-11-18T05:50:20;7.00;;;3.08;;
14052;SDS011;7101;51.600;7.310;2022-11-18T05:52:47;9.70;;;3.50;;
14052;SDS011;7101;51.600;7.310;2022-11-18T05:55:15;6.30;;;3.53;;
14052;SDS011;7101;51.600;7.310;2022-11-18T05:57:44;6.47;;;3.40;;
14052;SDS011;7101;51.600;7.310;2022-11-18T06:00:13;9.13;;;3.90;;
14052;SDS011;7101;51.600;7.310;2022-11-18T06:02:40;6.10;;;3.47;;
14052;SDS011;7101;51.600;7.310;2022-11-18T06:05:10;6.13;;;3.42;;
14052;SDS011;7101;51.600;7.310;2022-11-18T06:07:38;7.43;;;3.53;;
14052;SDS011;7101;51.600;7.310;2022-11-18T06:10:09;5.97;;;3.63;;
14052;SDS011;7101;51.600;7.310;2022-11-18T06:12:39;7.40;;;3.80;;
14052;SDS011;7101;51.600;7.310;2022-11-18T06:15:14;6.00;;;3.38;;
14052;SDS011;7101;51.600;7.310;2022-11-18T06:17:48;9.50;;;3.40;;
14052;SDS011;7101;51.600;7.310;2022-11-18T06:20:20;6.85;;;3.50;;
14052;SDS011;7101;51.600;7.310;2022-11-18T06:22:48;8.88;;;3.83;;
14052;SDS011;7101;51.600;7.310;2022-11-18T06:25:18;6.45;;;3.45;;
14052;SDS011;7101;51.600;7.310;2022-11-18T06:27:47;6.25;;;3.70;;
14052;SDS011;7101;51.600;7.310;2022-11-18T06:30:18;5.72;;;3.75;;
14052;SDS011;7101;51.600;7.310;2022-11-18T06:32:47;7.38;;;4.18;;
14052;SDS011;7101;51.600;7.310;2022-11-18T06:35:14;7.60;;;5.13;;
14052;SDS011;7101;51.600;7.310;2022-11-18T06:37:41;7.43;;;4.60;;
14052;SDS011;7101;51.600;7.310;2022-11-18T06:40:09;14.05;;;4.90;;
14052;SDS011;7101;51.600;7.310;2022-11-18T06:42:37;8.73;;;4.70;;
14052;SDS011;7101;51.600;7.310;2022-11-18T06:45:22;6.85;;;4.35;;
14052;SDS011;7101;51.600;7.310;2022-11-18T06:47:50;10.10;;;4.45;;
14052;SDS011;7101;51.600;7.310;2022-11-18T06:50:20;9.15;;;4.50;;
14052;SDS011;7101;51.600;7.310;2022-11-18T06:52:46;7.88;;;5.13;;
14052;SDS011;7101;51.600;7.310;2022-11-18T06:55:13;7.63;;;4.18;;
14052;SDS011;7101;51.600;7.310;2022-11-18T06:57:40;9.88;;;4.63;;
14052;SDS011;7101;51.600;7.310;2022-11-18T07:00:08;10.43;;;4.80;;
14052;SDS011;7101;51.600;7.310;2022-11-18T07:02:37;7.70;;;4.45;;
14052;SDS011;7101;51.600;7.310;2022-11-18T07:05:06;8.88;;;4.57;;
14052;SDS011;7101;51.600;7.310;2022-11-18T07:07:34;7.88;;;4.90;;
14052;SDS011;7101;51.600;7.310;2022-11-18T07:10:03;14.48;;;5.05;;
14052;SDS011;7101;51.600;7.310;2022-11-18T07:12:31;7.97;;;4.72;;
14052;SDS011;7101;51.600;7.310;2022-11-18T07:14:58;9.57;;;5.30;;
14052;SDS011;7101;51.600;7.310;2022-11-18T07:17:25;11.88;;;4.95;;
14052;SDS011;7101;51.600;7.310;2022-11-18T07:19:53;9.25;;;5.05;;
14052;SDS011;7101;51.600;7.310;2022-11-18T07:22:22;10.65;;;5.93;;
14052;SDS011;7101;51.600;7.310;2022-11-18T07:24:49;9.57;;;5.18;;
14052;SDS011;7101;51.600;7.310;2022-11-18T07:27:16;16.83;;;5.75;;
14052;SDS011;7101;51.600;7.310;2022-11-18T07:29:43;9.52;;;5.35;;
14052;SDS011;7101;51.600;7.310;2022-11-18T07:32:10;13.80;;;5.72;;
14052;SDS011;7101;51.600;7.310;2022-11-18T07:34:37;11.10;;;5.45;;
14052;SDS011;7101;51.600;7.310;2022-11-18T07:37:05;9.77;;;5.18;;
14052;SDS011;7101;51.600;7.310;2022-11-18T07:39:33;10.90;;;5.43;;
14052;SDS011;7101;51.600;7.310;2022-11-18T07:42:00;12.00;;;5.70;;
14052;SDS011;7101;51.600;7.310;2022-11-18T07:44:29;14.57;;;5.95;;
14052;SDS011;7101;51.600;7.310;2022-11-18T07:46:55;10.13;;;6.18;;
14052;SDS011;7101;51.600;7.310;2022-11-18T07:49:24;7.55;;;4.90;;
14052;SDS011;7101;51.600;7.310;2022-11-18T07:51:51;8.35;;;5.40;;
14052;SDS011;7101;51.600;7.310;2022-11-18T07:54:20;13.05;;;5.05;;
14052;SDS011;7101;51.600;7.310;2022-11-18T07:56:46;9.00;;;5.60;;
14052;SDS011;7101;51.600;7.310;2022-11-18T07:59:15;9.32;;;4.90;;
14052;SDS011;7101;51.600;7.310;2022-11-18T08:01:42;10.80;;;4.97;;
14052;SDS011;7101;51.600;7.310;2022-11-18T08:04:10;13.25;;;5.45;;
14052;SDS011;7101;51.600;7.310;2022-11-18T08:06:37;12.27;;;5.45;;
14052;SDS011;7101;51.600;7.310;2022-11-18T08:09:05;8.68;;;4.72;;
14052;SDS011;7101;51.600;7.310;2022-11-18T08:11:34;7.65;;;5.22;;
14052;SDS011;7101;51.600;7.310;2022-11-18T08:14:02;8.73;;;5.30;;
14052;SDS011;7101;51.600;7.310;2022-11-18T08:16:29;10.32;;;5.13;;
14052;SDS011;7101;51.600;7.310;2022-11-18T08:18:57;10.55;;;5.95;;
14052;SDS011;7101;51.600;7.310;2022-11-18T08:21:25;16.15;;;6.20;;
14052;SDS011;7101;51.600;7.310;2022-11-18T08:23:54;14.43;;;6.65;;
14052;SDS011;7101;51.600;7.310;2022-11-18T08:26:22;14.25;;;7.00;;
14052;SDS011;7101;51.600;7.310;2022-11-18T08:28:52;13.38;;;6.60;;
14052;SDS011;7101;51.600;7.310;2022-11-18T08:31:20;12.90;;;6.50;;
14052;SDS011;7101;51.600;7.310;2022-11-18T08:33:53;13.20;;;7.50;;
14052;SDS011;7101;51.600;7.310;2022-11-18T08:36:22;13.43;;;6.88;;
14052;SDS011;7101;51.600;7.310;2022-11-18T08:38:53;14.85;;;7.82;;
14052;SDS011;7101;51.600;7.310;2022-11-18T08:41:24;12.48;;;7.78;;
14052;SDS011;7101;51.600;7.310;2022-11-18T08:43:58;14.77;;;7.80;;
14052;SDS011;7101;51.600;7.310;2022-11-18T08:46:27;15.32;;;8.13;;
14052;SDS011;7101;51.600;7.310;2022-11-18T08:48:55;12.07;;;7.22;;
14052;SDS011;7101;51.600;7.310;2022-11-18T08:51:23;14.48;;;7.47;;
14052;SDS011;7101;51.600;7.310;2022-11-18T08:53:50;13.00;;;6.70;;
14052;SDS011;7101;51.600;7.310;2022-11-18T08:56:21;12.02;;;6.05;;
14052;SDS011;7101;51.600;7.310;2022-11-18T08:58:48;12.25;;;6.03;;
14052;SDS011;7101;51.600;7.310;2022-11-18T09:01:17;13.63;;;6.45;;
14052;SDS011;7101;51.600;7.310;2022-11-18T09:03:46;11.10;;;6.00;;
14052;SDS011;7101;51.600;7.310;2022-11-18T09:06:14;12.13;;;6.45;;
14052;SDS011;7101;51.600;7.310;2022-11-18T09:08:44;9.70;;;6.05;;
14052;SDS011;7101;51.600;7.310;2022-11-18T09:11:12;10.95;;;6.15;;
14052;SDS011;7101;51.600;7.310;2022-11-18T09:13:40;16.20;;;7.20;;
14052;SDS011;7101;51.600;7.310;2022-11-18T09:16:07;13.52;;;8.43;;
14052;SDS011;7101;51.600;7.310;2022-11-18T09:18:39;10.80;;;6.10;;
14052;SDS011;7101;51.600;7.310;2022-11-18T09:21:08;10.68;;;6.28;;
14052;SDS011;7101;51.600;7.310;2022-11-18T09:23:35;10.98;;;6.03;;
14052;SDS011;7101;51.600;7.310;2022-11-18T09:26:03;13.57;;;5.63;;
14052;SDS011;7101;51.600;7.310;2022-11-18T09:28:32;12.23;;;5.57;;
14052;SDS011;7101;51.600;7.310;2022-11-18T09:31:02;9.85;;;5.75;;
14052;SDS011;7101;51.600;7.310;2022-11-18T09:33:29;11.82;;;6.10;;
14052;SDS011;7101;51.600;7.310;2022-11-18T09:35:57;11.38;;;5.60;;
14052;SDS011;7101;51.600;7.310;2022-11-18T09:38:24;11.80;;;5.90;;
14052;SDS011;7101;51.600;7.310;2022-11-18T09:40:55;7.75;;;4.60;;
14052;SDS011;7101;51.600;7.310;2022-11-18T09:43:33;8.93;;;4.97;;
14052;SDS011;7101;51.600;7.310;2022-11-18T09:46:20;11.50;;;5.55;;
14052;SDS011;7101;51.600;7.310;2022-11-18T09:48:53;8.10;;;5.40;;
14052;SDS011;7101;51.600;7.310;2022-11-18T09:51:40;8.73;;;5.03;;
14052;SDS011;7101;51.600;7.310;2022-11-18T09:54:09;8.93;;;5.47;;
14052;SDS011;7101;51.600;7.310;2022-11-18T09:56:38;8.80;;;5.40;;
14052;SDS011;7101;51.600;7.310;2022-11-18T09:59:06;7.35;;;4.70;;
14052;SDS011;7101;51.600;7.310;2022-11-18T10:01:38;8.93;;;5.38;;
14052;SDS011;7101;51.600;7.310;2022-11-18T10:04:10;10.82;;;5.70;;
14052;SDS011;7101;51.600;7.310;2022-11-18T10:06:41;10.70;;;5.20;;
14052;SDS011;7101;51.600;7.310;2022-11-18T10:09:10;12.07;;;5.70;;
14052;SDS011;7101;51.600;7.310;2022-11-18T10:11:47;12.05;;;6.38;;
14052;SDS011;7101;51.600;7.310;2022-11-18T10:14:29;10.20;;;6.70;;
14052;SDS011;7101;51.600;7.310;2022-11-18T10:17:08;9.82;;;6.25;;
14052;SDS011;7101;51.600;7.310;2022-11-18T10:19:49;9.70;;;5.82;;
14052;SDS011;7101;51.600;7.310;2022-11-18T10:22:24;9.85;;;6.30;;
14052;SDS011;7101;51.600;7.310;2022-11-18T10:24:56;14.50;;;5.95;;
14052;SDS011;7101;51.600;7.310;2022-11-18T10:27:25;9.75;;;6.22;;
14052;SDS011;7101;51.600;7.310;2022-11-18T10:29:59;11.20;;;6.78;;
14052;SDS011;7101;51.600;7.310;2022-11-18T10:32:27;10.85;;;6.50;;
14052;SDS011;7101;51.600;7.310;2022-11-18T10:34:55;14.23;;;7.75;;
14052;SDS011;7101;51.600;7.310;2022-11-18T10:37:25;12.38;;;7.43;;
14052;SDS011;7101;51.600;7.310;2022-11-18T10:39:54;14.35;;;8.02;;
14052;SDS011;7101;51.600;7.310;2022-11-18T10:42:24;12.45;;;7.43;;
14052;SDS011;7101;51.600;7.310;2022-11-18T10:44:54;11.50;;;7.45;;
14052;SDS011;7101;51.600;7.310;2022-11-18T10:47:23;10.57;;;6.60;;
14052;SDS011;7101;51.600;7.310;2022-11-18T10:49:56;12.52;;;6.72;;
14052;SDS011;7101;51.600;7.310;2022-11-18T10:52:25;12.15;;;7.80;;
14052;SDS011;7101;51.600;7.310;2022-11-18T10:55:07;14.80;;;8.60;;
14052;SDS011;7101;51.600;7.310;2022-11-18T10:57:46;12.15;;;8.02;;
14052;SDS011;7101;51.600;7.310;2022-11-18T11:00:36;11.43;;;7.22;;
14052;SDS011;7101;51.600;7.310;2022-11-18T11:08:57;14.63;;;6.65;;
14052;SDS011;7101;51.600;7.310;2022-11-18T11:11:27;11.00;;;6.57;;
14052;SDS011;7101;51.600;7.310;2022-11-18T11:14:01;11.57;;;6.32;;
14052;SDS011;7101;51.600;7.310;2022-11-18T11:16:38;10.25;;;6.15;;
14052;SDS011;7101;51.600;7.310;2022-11-18T11:19:10;9.90;;;6.80;;
14052;SDS011;7101;51.600;7.310;2022-11-18T11:21:39;10.98;;;6.57;;
14052;SDS011;7101;51.600;7.310;2022-11-18T11:24:11;12.45;;;6.55;;
14052;SDS011;7101;51.600;7.310;2022-11-18T11:26:42;10.13;;;6.78;;
14052;SDS011;7101;51.600;7.310;2022-11-18T11:29:17;14.13;;;7.22;;
14052;SDS011;7101;51.600;7.310;2022-11-18T11:31:53;9.02;;;6.00;;
14052;SDS011;7101;51.600;7.310;2022-11-18T11:34:31;12.93;;;6.38;;
14052;SDS011;7101;51.600;7.310;2022-11-18T11:37:09;11.43;;;6.28;;
14052;SDS011;7101;51.600;7.310;2022-11-18T11:39:51;12.00;;;5.50;;
14052;SDS011;7101;51.600;7.310;2022-11-18T11:42:34;8.32;;;4.78;;
14052;SDS011;7101;51.600;7.310;2022-11-18T11:45:12;11.00;;;4.43;;
14052;SDS011;7101;51.600;7.310;2022-11-18T11:47:51;8.05;;;4.50;;
14052;SDS011;7101;51.600;7.310;2022-11-18T11:50:37;7.47;;;4.35;;
14052;SDS011;7101;51.600;7.310;2022-11-18T11:53:23;9.32;;;4.60;;
14052;SDS011;7101;51.600;7.310;2022-11-18T11:56:10;7.85;;;4.93;;
14052;SDS011;7101;51.600;7.310;2022-11-18T11:58:48;13.45;;;4.88;;
14052;SDS011;7101;51.600;7.310;2022-11-18T12:01:34;9.20;;;4.50;;
14052;SDS011;7101;51.600;7.310;2022-11-18T12:04:13;7.68;;;4.53;;
14052;SDS011;7101;51.600;7.310;2022-11-18T12:06:51;9.25;;;4.30;;
14052;SDS011;7101;51.600;7.310;2022-11-18T12:09:20;6.50;;;3.80;;
14052;SDS011;7101;51.600;7.310;2022-11-18T12:11:55;7.85;;;3.80;;
14052;SDS011;7101;51.600;7.310;2022-11-18T12:14:30;10.02;;;4.00;;
14052;SDS011;7101;51.600;7.310;2022-11-18T12:17:07;6.82;;;3.80;;
14052;SDS011;7101;51.600;7.310;2022-11-18T12:19:42;5.55;;;3.00;;
14052;SDS011;7101;51.600;7.310;2022-11-18T12:22:09;6.05;;;3.47;;
14052;SDS011;7101;51.600;7.310;2022-11-18T12:24:37;8.43;;;3.33;;
14052;SDS011;7101;51.600;7.310;2022-11-18T12:27:13;11.70;;;3.05;;
14052;SDS011;7101;51.600;7.310;2022-11-18T12:30:23;7.68;;;3.50;;
14052;SDS011;7101;51.600;7.310;2022-11-18T12:32:53;6.55;;;3.30;;
14052;SDS011;7101;51.600;7.310;2022-11-18T12:35:23;5.93;;;2.92;;
14052;SDS011;7101;51.600;7.310;2022-11-18T12:37:59;8.40;;;2.70;;
14052;SDS011;7101;51.600;7.310;2022-11-18T12:40:31;10.90;;;3.45;;
14052;SDS011;7101;51.600;7.310;2022-11-18T12:43:17;6.60;;;2.80;;
14052;SDS011;7101;51.600;7.310;2022-11-18T12:46:47;7.22;;;2.75;;
14052;SDS011;7101;51.600;7.310;2022-11-18T12:52:53;9.18;;;2.80;;
14052;SDS011;7101;51.600;7.310;2022-11-18T12:55:25;8.38;;;2.58;;
14052;SDS011;7101;51.600;7.310;2022-11-18T12:57:58;10.00;;;2.63;;
14052;SDS011;7101;51.600;7.310;2022-11-18T13:00:32;8.38;;;2.97;;
14052;SDS011;7101;51.600;7.310;2022-11-18T13:03:21;9.60;;;3.00;;
14052;SDS011;7101;51.600;7.310;2022-11-18T13:05:50;7.75;;;2.50;;
14052;SDS011;7101;51.600;7.310;2022-11-18T13:08:24;10.77;;;2.70;;
14052;SDS011;7101;51.600;7.310;2022-11-18T13:10:52;5.65;;;2.20;;
14052;SDS011;7101;51.600;7.310;2022-11-18T13:13:43;6.97;;;2.42;;
14052;SDS011;7101;51.600;7.310;2022-11-18T13:16:16;9.75;;;2.40;;
14052;SDS011;7101;51.600;7.310;2022-11-18T13:19:04;7.85;;;2.60;;
14052;SDS011;7101;51.600;7.310;2022-11-18T13:21:31;9.43;;;2.40;;
14052;SDS011;7101;51.600;7.310;2022-11-18T13:24:17;7.47;;;2.50;;
14052;SDS011;7101;51.600;7.310;2022-11-18T13:26:46;7.15;;;2.72;;
14052;SDS011;7101;51.600;7.310;2022-11-18T13:29:16;10.32;;;3.00;;
14052;SDS011;7101;51.600;7.310;2022-11-18T13:31:59;7.38;;;3.03;;
14052;SDS011;7101;51.600;7.310;2022-11-18T13:34:39;5.25;;;3.00;;
14052;SDS011;7101;51.600;7.310;2022-11-18T13:37:12;6.70;;;3.47;;
14052;SDS011;7101;51.600;7.310;2022-11-18T13:39:43;11.23;;;6.07;;
14052;SDS011;7101;51.600;7.310;2022-11-18T13:42:15;7.93;;;3.75;;
14052;SDS011;7101;51.600;7.310;2022-11-18T13:44:45;8.98;;;3.45;;
14052;SDS011;7101;51.600;7.310;2022-11-18T13:47:19;9.32;;;2.85;;
14052;SDS011;7101;51.600;7.310;2022-11-18T13:49:52;12.05;;;2.83;;
14052;SDS011;7101;51.600;7.310;2022-11-18T13:52:26;7.20;;;2.78;;
14052;SDS011;7101;51.600;7.310;2022-11-18T13:54:56;7.03;;;3.03;;
14052;SDS011;7101;51.600;7.310;2022-11-18T13:57:26;8.70;;;3.13;;
14052;SDS011;7101;51.600;7.310;2022-11-18T13:59:55;8.00;;;3.55;;
14052;SDS011;7101;51.600;7.310;2022-11-18T14:02:27;7.03;;;3.40;;
14052;SDS011;7101;51.600;7.310;2022-11-18T14:04:55;10.00;;;3.75;;
14052;SDS011;7101;51.600;7.310;2022-11-18T14:07:25;12.60;;;3.85;;
14052;SDS011;7101;51.600;7.310;2022-11-18T14:09:55;11.68;;;4.07;;
14052;SDS011;7101;51.600;7.310;2022-11-18T14:12:25;8.43;;;4.07;;
14052;SDS011;7101;51.600;7.310;2022-11-18T14:17:48;9.68;;;4.18;;
14052;SDS011;7101;51.600;7.310;2022-11-18T14:20:18;11.07;;;4.60;;
14052;SDS011;7101;51.600;7.310;2022-11-18T14:22:46;9.45;;;4.03;;
14052;SDS011;7101;51.600;7.310;2022-11-18T14:25:21;12.80;;;4.35;;
14052;SDS011;7101;51.600;7.310;2022-11-18T14:27:53;12.38;;;4.40;;
14052;SDS011;7101;51.600;7.310;2022-11-18T14:30:29;12.02;;;4.72;;
14052;SDS011;7101;51.600;7.310;2022-11-18T14:33:13;8.07;;;4.70;;
14052;SDS011;7101;51.600;7.310;2022-11-18T14:35:43;11.43;;;4.75;;
14052;SDS011;7101;51.600;7.310;2022-11-18T14:38:15;12.55;;;7.60;;
14052;SDS011;7101;51.600;7.310;2022-11-18T14:40:44;10.95;;;8.13;;
14052;SDS011;7101;51.600;7.310;2022-11-18T14:43:11;15.55;;;9.32;;
14052;SDS011;7101;51.600;7.310;2022-11-18T14:45:38;15.32;;;9.05;;
14052;SDS011;7101;51.600;7.310;2022-11-18T14:48:05;19.23;;;10.25;;
14052;SDS011;7101;51.600;7.310;2022-11-18T14:50:37;19.88;;;10.90;;
14052;SDS011;7101;51.600;7.310;2022-11-18T14:53:07;16.88;;;11.35;;
14052;SDS011;7101;51.600;7.310;2022-11-18T14:55:35;18.83;;;12.07;;
14052;SDS011;7101;51.600;7.310;2022-11-18T14:58:02;19.05;;;12.13;;
14052;SDS011;7101;51.600;7.310;2022-11-18T15:00:29;18.95;;;12.90;;
14052;SDS011;7101;51.600;7.310;2022-11-18T15:02:57;20.75;;;14.45;;
14052;SDS011;7101;51.600;7.310;2022-11-18T15:05:23;22.40;;;15.55;;
14052;SDS011;7101;51.600;7.310;2022-11-18T15:07:51;24.13;;;16.58;;
14052;SDS011;7101;51.600;7.310;2022-11-18T15:10:19;25.38;;;16.98;;
14052;SDS011;7101;51.600;7.310;2022-11-18T15:12:47;21.55;;;16.92;;
14052;SDS011;7101;51.600;7.310;2022-11-18T15:15:15;25.35;;;19.90;;
14052;SDS011;7101;51.600;7.310;2022-11-18T15:17:42;31.05;;;21.85;;
14052;SDS011;7101;51.600;7.310;2022-11-18T15:20:09;28.33;;;21.85;;
14052;SDS011;7101;51.600;7.310;2022-11-18T15:22:39;29.67;;;23.45;;
14052;SDS011;7101;51.600;7.310;2022-11-18T15:25:07;29.80;;;22.52;;
14052;SDS011;7101;51.600;7.310;2022-11-18T15:27:36;29.05;;;22.85;;
14052;SDS011;7101;51.600;7.310;2022-11-18T15:30:05;28.52;;;23.33;;
14052;SDS011;7101;51.600;7.310;2022-11-18T15:32:32;29.65;;;23.77;;